createdAt,value
2022-10-16T00:01:46.533Z,16.30
2022-10-16T00:04:14.723Z,17.50
2022-10-16T00:06:43.088Z,18.00
2022-10-16T00:09:11.583Z,17.00
2022-10-16T00:11:41.901Z,16.80
2022-10-16T00:14:15.746Z,17.00
2022-10-16T00:16:43.959Z,15.80
2022-10-16T00:19:13.383Z,15.80
2022-10-16T00:21:41.951Z,15.50
2022-10-16T00:24:11.636Z,16.60
2022-10-16T00:26:41.525Z,16.20
2022-10-16T00:29:10.544Z,17.30
2022-10-16T00:31:38.708Z,14.40
2022-10-16T00:34:06.899Z,15.90
2022-10-16T00:36:34.944Z,15.60
2022-10-16T00:39:04.896Z,15.00
2022-10-16T00:41:34.014Z,14.50
2022-10-16T00:44:24.022Z,15.00
2022-10-16T00:46:52.328Z,14.50
2022-10-16T00:49:21.680Z,15.00
2022-10-16T00:51:53.355Z,14.10
2022-10-16T00:54:28.814Z,14.90
2022-10-16T00:57:00.629Z,13.20
2022-10-16T00:59:32.399Z,14.30
2022-10-16T01:02:01.222Z,12.80
2022-10-16T01:04:35.665Z,13.30
2022-10-16T01:07:10.937Z,13.10
2022-10-16T01:09:48.292Z,13.10
2022-10-16T01:12:47.174Z,12.20
2022-10-16T01:15:42.179Z,12.70
2022-10-16T01:18:38.975Z,12.50
2022-10-16T01:21:14.318Z,12.80
2022-10-16T01:26:50.415Z,13.60
2022-10-16T01:29:35.761Z,13.90
2022-10-16T01:32:19.257Z,13.20
2022-10-16T01:34:53.088Z,13.60
2022-10-16T01:37:39.441Z,13.50
2022-10-16T01:40:12.368Z,13.90
2022-10-16T01:42:46.007Z,12.60
2022-10-16T01:45:19.211Z,13.30
2022-10-16T01:47:50.609Z,13.00
2022-10-16T01:50:21.667Z,13.90
2022-10-16T01:52:54.136Z,13.40
2022-10-16T01:55:30.148Z,13.30
2022-10-16T01:58:01.235Z,13.10
2022-10-16T02:00:31.470Z,12.30
2022-10-16T02:03:03.562Z,13.10
2022-10-16T02:05:47.253Z,13.10
2022-10-16T02:08:15.498Z,12.50
2022-10-16T02:10:43.671Z,11.90
2022-10-16T02:13:20.857Z,11.10
2022-10-16T02:15:50.028Z,11.80
2022-10-16T02:18:18.261Z,11.90
2022-10-16T02:20:59.512Z,11.40
2022-10-16T02:23:53.570Z,11.80
2022-10-16T02:26:31.235Z,11.30
2022-10-16T02:29:06.061Z,11.90
2022-10-16T02:31:39.482Z,11.40
2022-10-16T02:34:09.492Z,12.00
2022-10-16T02:36:38.030Z,11.60
2022-10-16T02:39:07.936Z,10.90
2022-10-16T02:41:36.483Z,10.40
2022-10-16T02:44:04.891Z,10.60
2022-10-16T02:46:33.405Z,11.40
2022-10-16T02:49:01.477Z,10.60
2022-10-16T02:51:29.680Z,10.90
2022-10-16T02:53:57.724Z,10.80
2022-10-16T02:56:26.008Z,10.60
2022-10-16T02:58:54.101Z,10.10
2022-10-16T03:01:22.154Z,9.90
2022-10-16T03:03:51.357Z,9.70
2022-10-16T03:06:19.453Z,10.00
2022-10-16T03:08:47.398Z,9.60
2022-10-16T03:11:15.334Z,9.40
2022-10-16T03:13:43.361Z,9.90
2022-10-16T03:16:11.338Z,9.60
2022-10-16T03:18:39.445Z,9.50
2022-10-16T03:21:07.567Z,10.40
2022-10-16T03:23:35.618Z,10.00
2022-10-16T03:26:03.817Z,10.90
2022-10-16T03:28:31.783Z,10.50
2022-10-16T03:31:03.363Z,9.70
2022-10-16T03:33:31.421Z,9.40
2022-10-16T03:35:59.437Z,9.60
2022-10-16T03:38:27.454Z,10.90
2022-10-16T03:40:55.517Z,11.80
2022-10-16T03:43:23.567Z,13.30
2022-10-16T03:45:52.744Z,13.00
2022-10-16T03:48:20.913Z,12.00
2022-10-16T03:50:49.480Z,10.50
2022-10-16T03:53:17.454Z,9.90
2022-10-16T03:55:45.986Z,9.90
2022-10-16T03:58:15.139Z,9.90
2022-10-16T04:00:44.968Z,9.70
2022-10-16T04:03:13.042Z,9.70
2022-10-16T04:05:41.586Z,11.00
2022-10-16T04:08:09.750Z,10.00
2022-10-16T04:10:39.223Z,9.80
2022-10-16T04:13:09.682Z,9.00
2022-10-16T04:15:41.103Z,9.40
2022-10-16T04:18:09.634Z,8.80
2022-10-16T04:20:37.711Z,9.40
2022-10-16T04:23:05.851Z,9.30
2022-10-16T04:25:34.680Z,9.10
2022-10-16T04:28:03.223Z,8.90
2022-10-16T04:30:31.723Z,8.80
2022-10-16T04:35:32.967Z,8.50
2022-10-16T04:38:01.199Z,9.00
2022-10-16T04:40:29.189Z,9.30
2022-10-16T04:42:58.020Z,9.60
2022-10-16T04:45:26.472Z,9.10
2022-10-16T04:47:58.231Z,8.90
2022-10-16T04:50:27.117Z,9.10
2022-10-16T04:53:08.481Z,8.90
2022-10-16T04:55:36.681Z,9.60
2022-10-16T04:58:05.306Z,8.80
2022-10-16T05:00:35.698Z,9.00
2022-10-16T05:03:07.206Z,9.30
2022-10-16T05:05:36.186Z,10.10
2022-10-16T05:08:05.204Z,10.10
2022-10-16T05:10:33.169Z,10.50
2022-10-16T05:13:01.326Z,11.50
2022-10-16T05:15:29.935Z,11.60
2022-10-16T05:17:59.930Z,11.60
2022-10-16T05:20:28.000Z,11.70
2022-10-16T05:22:56.989Z,12.30
2022-10-16T05:25:25.609Z,12.10
2022-10-16T05:27:53.962Z,12.00
2022-10-16T05:30:24.485Z,12.20
2022-10-16T05:32:53.923Z,12.50
2022-10-16T05:35:22.941Z,12.30
2022-10-16T05:37:50.951Z,12.50
2022-10-16T05:40:20.332Z,12.90
2022-10-16T05:42:49.175Z,13.60
2022-10-16T05:45:18.272Z,13.40
2022-10-16T05:47:46.376Z,14.00
2022-10-16T05:50:14.819Z,13.20
2022-10-16T05:52:42.877Z,13.60
2022-10-16T05:55:13.215Z,13.40
2022-10-16T05:57:41.610Z,12.50
2022-10-16T06:00:11.156Z,13.00
2022-10-16T06:02:45.895Z,12.80
2022-10-16T06:05:16.143Z,13.60
2022-10-16T06:07:44.149Z,13.00
2022-10-16T06:10:12.193Z,13.90
2022-10-16T06:12:40.154Z,13.40
2022-10-16T06:15:08.660Z,14.50
2022-10-16T06:17:38.106Z,15.50
2022-10-16T06:20:06.576Z,15.30
2022-10-16T06:22:34.736Z,14.90
2022-10-16T06:25:02.836Z,16.60
2022-10-16T06:27:30.873Z,16.80
2022-10-16T06:30:01.138Z,18.30
2022-10-16T06:32:29.966Z,17.20
2022-10-16T06:35:00.201Z,18.10
2022-10-16T06:37:29.052Z,21.40
2022-10-16T06:39:57.450Z,26.00
2022-10-16T06:42:26.371Z,31.10
2022-10-16T06:44:54.956Z,33.30
2022-10-16T06:47:23.555Z,36.30
2022-10-16T06:49:54.232Z,37.70
2022-10-16T06:52:22.838Z,31.80
2022-10-16T06:54:51.445Z,29.00
2022-10-16T06:57:19.796Z,23.20
2022-10-16T06:59:50.107Z,21.90
2022-10-16T07:02:20.170Z,21.20
2022-10-16T07:04:48.563Z,21.60
2022-10-16T07:07:16.596Z,20.70
2022-10-16T07:09:45.127Z,20.10
2022-10-16T07:12:13.653Z,21.40
2022-10-16T07:14:42.266Z,22.20
2022-10-16T07:17:12.103Z,20.70
2022-10-16T07:19:40.304Z,20.80
2022-10-16T07:22:08.431Z,20.50
2022-10-16T07:24:36.617Z,20.20
2022-10-16T07:27:04.948Z,18.60
2022-10-16T07:29:33.956Z,19.50
2022-10-16T07:32:02.844Z,18.70
2022-10-16T07:34:30.967Z,17.90
2022-10-16T07:36:58.919Z,17.40
2022-10-16T07:39:27.292Z,16.40
2022-10-16T07:41:56.167Z,15.80
2022-10-16T07:44:24.211Z,16.40
2022-10-16T07:46:52.158Z,17.60
2022-10-16T07:49:20.356Z,17.40
2022-10-16T07:51:49.280Z,17.30
2022-10-16T07:54:17.267Z,16.90
2022-10-16T07:56:45.335Z,17.10
2022-10-16T07:59:14.027Z,17.00
2022-10-16T08:01:46.715Z,16.80
2022-10-16T08:04:15.071Z,17.00
2022-10-16T08:06:44.094Z,17.30
2022-10-16T08:09:12.248Z,16.30
2022-10-16T08:11:40.298Z,16.30
2022-10-16T08:14:08.435Z,16.90
2022-10-16T08:16:38.691Z,16.90
2022-10-16T08:19:06.783Z,15.40
2022-10-16T08:21:34.832Z,16.50
2022-10-16T08:24:03.472Z,17.00
2022-10-16T08:26:33.925Z,17.60
2022-10-16T08:29:02.718Z,16.10
2022-10-16T08:31:31.112Z,15.60
2022-10-16T08:33:59.100Z,15.70
2022-10-16T08:36:27.088Z,15.70
2022-10-16T08:38:55.574Z,17.00
2022-10-16T08:41:30.667Z,16.20
2022-10-16T08:44:26.106Z,17.60
2022-10-16T08:47:12.400Z,17.90
2022-10-16T08:52:18.332Z,17.00
2022-10-16T08:54:52.603Z,18.50
2022-10-16T08:57:24.729Z,17.40
2022-10-16T09:00:01.483Z,19.20
2022-10-16T09:02:58.801Z,18.30
2022-10-16T09:05:51.824Z,18.60
2022-10-16T09:08:52.443Z,17.40
2022-10-16T09:11:58.814Z,17.10
2022-10-16T09:14:37.257Z,16.30
2022-10-16T09:17:40.400Z,18.70
2022-10-16T09:20:39.371Z,17.40
2022-10-16T09:23:30.702Z,15.70
2022-10-16T09:26:21.363Z,15.40
2022-10-16T09:28:49.721Z,14.20
2022-10-16T09:31:52.714Z,14.50
2022-10-16T09:34:37.060Z,15.60
2022-10-16T09:37:14.137Z,15.70
2022-10-16T09:39:53.357Z,17.00
2022-10-16T09:42:32.534Z,19.40
2022-10-16T09:45:00.516Z,18.60
2022-10-16T09:47:30.610Z,17.90
2022-10-16T09:50:03.543Z,21.00
2022-10-16T09:52:38.111Z,19.90
2022-10-16T09:55:18.975Z,21.50
2022-10-16T09:57:55.823Z,21.90
2022-10-16T10:00:25.883Z,21.60
2022-10-16T10:05:30.481Z,20.10
2022-10-16T10:08:07.377Z,21.30
2022-10-16T10:10:43.499Z,21.30
2022-10-16T10:13:22.886Z,21.10
2022-10-16T10:15:51.841Z,20.40
2022-10-16T10:18:23.143Z,21.40
2022-10-16T10:21:07.038Z,20.20
2022-10-16T10:23:35.398Z,20.70
2022-10-16T10:26:20.280Z,19.60
2022-10-16T10:29:09.986Z,19.40
2022-10-16T10:32:03.658Z,19.20
2022-10-16T10:34:54.243Z,18.60
2022-10-16T10:37:39.551Z,20.30
2022-10-16T10:40:29.084Z,18.90
2022-10-16T10:43:10.939Z,19.40
2022-10-16T10:45:49.999Z,20.10
2022-10-16T10:48:53.117Z,19.30
2022-10-16T10:51:36.652Z,18.00
2022-10-16T10:54:27.017Z,19.20
2022-10-16T10:57:13.880Z,18.10
2022-10-16T10:59:53.766Z,18.20
2022-10-16T11:02:40.882Z,17.70
2022-10-16T11:05:57.938Z,17.40
2022-10-16T11:11:12.415Z,15.60
2022-10-16T11:16:24.269Z,15.20
2022-10-16T11:19:04.641Z,15.90
2022-10-16T11:21:42.993Z,13.60
2022-10-16T11:24:35.328Z,13.80
2022-10-16T11:27:10.174Z,12.20
2022-10-16T11:29:47.933Z,12.80
2022-10-16T11:32:31.048Z,11.90
2022-10-16T11:35:12.388Z,11.10
2022-10-16T11:37:44.956Z,12.10
2022-10-16T11:40:48.725Z,10.90
2022-10-16T11:43:26.119Z,10.60
2022-10-16T11:45:59.227Z,10.80
2022-10-16T11:48:30.353Z,10.50
2022-10-16T11:51:11.398Z,9.20
2022-10-16T11:53:44.360Z,9.10
2022-10-16T11:56:18.700Z,8.80
2022-10-16T11:59:09.493Z,8.90
2022-10-16T12:02:26.254Z,8.40
2022-10-16T12:05:16.761Z,7.60
2022-10-16T12:07:54.418Z,7.00
2022-10-16T12:10:30.375Z,7.10
2022-10-16T12:13:00.184Z,7.00
2022-10-16T12:15:57.609Z,6.80
2022-10-16T12:18:27.772Z,6.30
2022-10-16T12:21:05.556Z,6.90
2022-10-16T12:23:39.700Z,5.70
2022-10-16T12:26:11.316Z,5.80
2022-10-16T12:28:41.732Z,6.60
2022-10-16T12:31:11.221Z,5.40
2022-10-16T12:34:04.294Z,6.10
2022-10-16T12:36:35.979Z,6.00
2022-10-16T12:39:04.375Z,6.30
2022-10-16T12:41:40.983Z,5.40
2022-10-16T12:44:29.388Z,5.60
2022-10-16T12:46:57.580Z,5.00
2022-10-16T12:49:41.495Z,4.70
2022-10-16T12:52:35.760Z,4.40
2022-10-16T12:55:19.065Z,4.80
2022-10-16T12:58:25.716Z,4.80
2022-10-16T13:01:05.119Z,5.10
2022-10-16T13:03:49.281Z,5.20
2022-10-16T13:07:00.435Z,5.00
2022-10-16T13:09:40.398Z,5.00
2022-10-16T13:12:26.774Z,4.60
2022-10-16T13:15:27.724Z,4.60
2022-10-16T13:18:17.277Z,5.20
2022-10-16T13:20:57.648Z,5.50
2022-10-16T13:23:53.576Z,5.50
2022-10-16T13:26:58.353Z,4.70
2022-10-16T13:29:32.851Z,5.00
2022-10-16T13:34:30.973Z,5.50
2022-10-16T13:36:59.117Z,4.80
2022-10-16T13:39:30.931Z,4.20
2022-10-16T13:42:08.970Z,5.50
2022-10-16T13:44:43.788Z,4.50
2022-10-16T13:47:18.709Z,4.80
2022-10-16T13:49:47.627Z,4.40
2022-10-16T13:52:23.352Z,4.70
2022-10-16T13:54:52.888Z,4.40
2022-10-16T13:57:27.588Z,4.90
2022-10-16T13:59:56.859Z,5.60
2022-10-16T14:02:35.927Z,4.70
2022-10-16T14:05:11.720Z,4.40
2022-10-16T14:07:41.034Z,4.40
2022-10-16T14:10:24.037Z,4.50
2022-10-16T14:13:04.516Z,5.00
2022-10-16T14:15:36.661Z,5.00
2022-10-16T14:18:06.585Z,4.50
2022-10-16T14:20:35.838Z,4.40
2022-10-16T14:23:20.067Z,4.20
2022-10-16T14:25:48.464Z,4.60
2022-10-16T14:28:23.018Z,4.10
2022-10-16T14:30:54.692Z,4.10
2022-10-16T14:33:30.689Z,4.10
2022-10-16T14:36:15.397Z,4.40
2022-10-16T14:41:21.052Z,4.10
2022-10-16T14:43:55.889Z,4.10
2022-10-16T14:49:12.502Z,3.80
2022-10-16T14:51:45.737Z,4.20
2022-10-16T14:54:18.332Z,4.50
2022-10-16T14:56:55.711Z,4.20
2022-10-16T14:59:45.993Z,4.80
2022-10-16T15:02:35.721Z,5.20
2022-10-16T15:05:13.356Z,4.60
2022-10-16T15:07:42.907Z,4.70
2022-10-16T15:10:11.652Z,4.80
2022-10-16T15:12:41.346Z,5.00
2022-10-16T15:15:12.801Z,5.40
2022-10-16T15:17:41.061Z,5.00
2022-10-16T15:20:09.636Z,4.80
2022-10-16T15:22:37.851Z,5.30
2022-10-16T15:25:43.115Z,5.30
2022-10-16T15:28:13.500Z,5.30
2022-10-16T15:30:43.196Z,5.40
2022-10-16T15:33:20.394Z,5.80
2022-10-16T15:35:49.885Z,5.80
2022-10-16T15:38:20.051Z,6.20
2022-10-16T15:40:49.700Z,5.80
2022-10-16T15:43:20.205Z,6.60
2022-10-16T15:46:13.979Z,6.70
2022-10-16T15:48:42.163Z,6.60
2022-10-16T15:51:10.982Z,6.10
2022-10-16T15:53:42.947Z,5.90
2022-10-16T15:56:12.608Z,6.20
2022-10-16T15:58:43.336Z,6.10
2022-10-16T16:01:12.523Z,6.60
2022-10-16T16:03:41.545Z,6.90
2022-10-16T16:06:13.010Z,7.60
2022-10-16T16:08:41.395Z,8.80
2022-10-16T16:11:13.284Z,7.80
2022-10-16T16:13:42.982Z,11.30
2022-10-16T16:16:15.853Z,11.00
2022-10-16T16:18:44.619Z,11.20
2022-10-16T16:21:14.283Z,10.80
2022-10-16T16:23:42.658Z,10.80
2022-10-16T16:26:23.524Z,12.00
2022-10-16T16:28:51.725Z,12.00
2022-10-16T16:31:21.471Z,14.00
2022-10-16T16:33:52.328Z,12.50
2022-10-16T16:38:52.551Z,13.70
2022-10-16T16:41:23.184Z,14.80
2022-10-16T16:43:54.237Z,13.90
2022-10-16T16:46:24.997Z,14.50
2022-10-16T16:48:58.473Z,14.20
2022-10-16T16:51:26.707Z,12.90
2022-10-16T16:53:56.100Z,13.60
2022-10-16T16:56:26.046Z,12.60
2022-10-16T16:59:00.452Z,13.80
2022-10-16T17:01:30.259Z,13.40
2022-10-16T17:04:00.584Z,13.00
2022-10-16T17:06:35.508Z,12.70
2022-10-16T17:09:05.939Z,13.00
2022-10-16T17:11:35.100Z,13.00
2022-10-16T17:14:03.891Z,12.80
2022-10-16T17:16:37.553Z,11.20
2022-10-16T17:19:08.748Z,10.50
2022-10-16T17:21:40.719Z,10.60
2022-10-16T17:24:09.573Z,12.10
2022-10-16T17:26:42.123Z,10.90
2022-10-16T17:29:13.292Z,11.70
2022-10-16T17:31:41.667Z,12.70
2022-10-16T17:34:12.301Z,12.90
2022-10-16T17:36:46.900Z,11.70
2022-10-16T17:39:18.155Z,11.30
2022-10-16T17:41:48.503Z,12.40
2022-10-16T17:44:20.363Z,13.70
2022-10-16T17:46:54.039Z,13.50
2022-10-16T17:49:22.703Z,13.60
2022-10-16T17:51:53.871Z,13.60
2022-10-16T17:54:22.291Z,13.80
2022-10-16T17:56:52.577Z,14.40
2022-10-16T17:59:23.413Z,14.40
2022-10-16T18:01:51.504Z,14.20
2022-10-16T18:04:22.155Z,15.00
2022-10-16T18:06:50.942Z,14.50
2022-10-16T18:09:23.310Z,14.40
2022-10-16T18:12:01.294Z,16.10
2022-10-16T18:14:32.004Z,15.50
2022-10-16T18:17:03.273Z,15.40
2022-10-16T18:19:31.560Z,16.20
2022-10-16T18:21:59.953Z,17.00
2022-10-16T18:24:28.532Z,17.90
2022-10-16T18:26:57.047Z,17.40
2022-10-16T18:29:26.993Z,17.60
2022-10-16T18:31:55.985Z,17.40
2022-10-16T18:34:26.876Z,16.60
2022-10-16T18:36:55.274Z,17.00
2022-10-16T18:39:24.044Z,16.70
2022-10-16T18:41:55.523Z,15.80
2022-10-16T18:44:23.901Z,18.10
2022-10-16T18:46:57.135Z,19.30
2022-10-16T18:49:28.385Z,19.10
2022-10-16T18:51:57.220Z,18.00
2022-10-16T18:54:27.989Z,17.70
2022-10-16T18:56:56.217Z,18.70
2022-10-16T18:59:26.438Z,18.20
2022-10-16T19:01:54.772Z,17.10
2022-10-16T19:04:27.540Z,17.60
2022-10-16T19:06:56.187Z,18.10
2022-10-16T19:09:27.787Z,19.10
2022-10-16T19:11:57.573Z,17.90
2022-10-16T19:14:25.797Z,19.10
2022-10-16T19:16:53.851Z,18.30
2022-10-16T19:19:23.904Z,18.70
2022-10-16T19:21:59.382Z,16.60
2022-10-16T19:26:55.501Z,19.10
2022-10-16T19:29:23.572Z,18.20
2022-10-16T19:31:51.665Z,20.20
2022-10-16T19:34:20.749Z,18.70
2022-10-16T19:36:51.766Z,17.80
2022-10-16T19:41:48.232Z,17.90
2022-10-16T19:44:17.836Z,18.20
2022-10-16T19:46:48.935Z,18.20
2022-10-16T19:49:21.284Z,19.10
2022-10-16T19:51:52.014Z,18.30
2022-10-16T19:54:20.804Z,17.80
2022-10-16T19:56:53.510Z,18.60
2022-10-16T19:59:22.754Z,18.10
2022-10-16T20:01:51.637Z,17.50
2022-10-16T20:04:19.812Z,17.80
2022-10-16T20:06:50.716Z,17.30
2022-10-16T20:09:18.836Z,17.10
2022-10-16T20:11:47.124Z,16.50
2022-10-16T20:14:16.106Z,18.30
2022-10-16T20:16:44.231Z,17.70
2022-10-16T20:19:12.355Z,18.00
2022-10-16T20:21:40.611Z,17.90
2022-10-16T20:24:08.992Z,17.70
2022-10-16T20:26:37.813Z,16.30
2022-10-16T20:29:06.602Z,17.00
2022-10-16T20:31:35.540Z,16.90
2022-10-16T20:34:09.129Z,18.00
2022-10-16T20:36:40.171Z,17.10
2022-10-16T20:39:13.793Z,16.70
2022-10-16T20:41:42.131Z,15.40
2022-10-16T20:44:10.236Z,17.50
2022-10-16T20:46:38.253Z,15.90
2022-10-16T20:49:11.168Z,17.60
2022-10-16T20:51:50.123Z,15.10
2022-10-16T20:54:18.158Z,15.80
2022-10-16T20:56:47.152Z,15.60
2022-10-16T20:59:15.124Z,15.70
2022-10-16T21:01:43.295Z,16.10
2022-10-16T21:04:11.363Z,16.90
2022-10-16T21:06:40.085Z,17.10
2022-10-16T21:09:09.396Z,16.50
2022-10-16T21:11:37.850Z,15.00
2022-10-16T21:14:08.158Z,16.90
2022-10-16T21:16:36.903Z,16.30
2022-10-16T21:19:05.464Z,16.50
2022-10-16T21:21:37.201Z,16.60
2022-10-16T21:24:06.877Z,14.50
2022-10-16T21:26:35.420Z,15.90
2022-10-16T21:29:07.582Z,16.60
2022-10-16T21:31:36.071Z,15.60
2022-10-16T21:34:04.563Z,16.00
2022-10-16T21:36:36.662Z,15.70
2022-10-16T21:39:12.305Z,15.50
2022-10-16T21:41:42.521Z,15.00
2022-10-16T21:44:11.236Z,15.00
2022-10-16T21:46:41.644Z,15.40
2022-10-16T21:49:18.320Z,13.70
2022-10-16T21:51:49.490Z,15.10
2022-10-16T21:54:20.454Z,14.60
2022-10-16T21:56:48.700Z,13.50
2022-10-16T21:59:17.286Z,14.20
2022-10-16T22:01:45.829Z,14.40
2022-10-16T22:04:15.437Z,13.20
2022-10-16T22:06:43.767Z,13.00
2022-10-16T22:09:15.183Z,13.40
2022-10-16T22:11:45.267Z,13.60
2022-10-16T22:14:16.374Z,13.20
2022-10-16T22:16:45.284Z,14.00
2022-10-16T22:19:15.472Z,12.90
2022-10-16T22:21:46.273Z,11.80
2022-10-16T22:24:16.222Z,13.50
2022-10-16T22:26:44.941Z,13.00
2022-10-16T22:29:14.908Z,12.60
2022-10-16T22:31:44.314Z,13.20
2022-10-16T22:34:14.426Z,13.00
2022-10-16T22:36:43.083Z,12.00
2022-10-16T22:39:11.699Z,12.10
2022-10-16T22:41:39.759Z,12.80
2022-10-16T22:44:11.991Z,11.40
2022-10-16T22:46:40.732Z,12.50
2022-10-16T22:49:08.957Z,12.50
2022-10-16T22:51:37.150Z,11.60
2022-10-16T22:54:05.238Z,11.90
2022-10-16T22:56:33.392Z,12.20
2022-10-16T22:59:01.578Z,12.00
2022-10-16T23:01:33.686Z,12.50
2022-10-16T23:04:02.619Z,12.30
2022-10-16T23:06:31.434Z,11.50
2022-10-16T23:09:01.909Z,11.50
2022-10-16T23:11:30.737Z,11.20
2022-10-16T23:13:58.711Z,10.70
2022-10-16T23:16:26.712Z,11.60
2022-10-16T23:18:54.862Z,12.10
2022-10-16T23:21:25.272Z,12.00
2022-10-16T23:23:54.834Z,11.50
2022-10-16T23:26:26.094Z,12.20
2022-10-16T23:28:58.747Z,12.00
2022-10-16T23:31:28.433Z,12.10
2022-10-16T23:33:58.101Z,12.00
2022-10-16T23:36:26.344Z,9.90
2022-10-16T23:38:55.506Z,11.30
2022-10-16T23:41:23.957Z,10.00
2022-10-16T23:43:51.975Z,11.60
2022-10-16T23:46:20.436Z,10.40
2022-10-16T23:48:48.693Z,10.80
2022-10-16T23:51:17.033Z,10.90
2022-10-16T23:53:45.462Z,11.10
2022-10-16T23:56:13.898Z,11.00
2022-10-16T23:58:42.439Z,10.80
